Accueil
METAR-TAF:

METAR-TAF

Aéroports :

Aéroport de Béziers-Cap d'Agde

Béziers, France

latitude: 43-19N, longitude: 003-21E, altitude: 17 m

Observation

Le bulletin a été fait il y a 38 minutes, à 03:00 UTC
Vent 18 kt de nord-ouest
Température 8°C
Humidité 66%
Pression 1012 hPa
Visibilité 10 km ou plus
pas de nuages en-dessous de 1500 mètres et pas de cumulonimbus.

METAR: LFMU 120300Z AUTO 31018KT CAVOK 08/02 Q1012 NOSIG

Heure: 04:38 (03:38 UTC)

Prévision

Le bulletin a été fait il y a 1 heure et 38 minutes, à 02:00 UTC
Prévision valable du 12 à 03 UTC au 13 à 03 UTC
Vent 12 kt de nord-ouest
Visibilité 10 km ou plus
Quelques nuages à une hauteur de 5000 ft
Temporairement
du 12 à 11 UTC au 12 à 18 UTC
Vent 18 kt de nord-ouest avec des rafales jusqu'à 28 kt
Evoluant progressivement
du 12 à 18 UTC au 12 à 20 UTC
Vent 8 kt de ouest/nord-ouest

TAF: LFMU 120200Z 1203/1303 32012KT 9999 FEW050 TEMPO 1211/1218 32018G28KT BECMG 1218/1220 30008KT

Observations et prévisions météorologiques de plus de 4000 aéroports (messages METAR et TAF).

Les stations disponibles sont représentées par des disques jaunes et rouges sur la carte.

Passer la souris dessus pour voir le nom de la station.

Cliquer dessus pour voir les observations et prévisions météorologiques.

Pour changer de carte: cliquez sur les boutons verts avec une croix noire pour zoomer, sur le bouton vert avec un tiret pour effectuer un zoom arrière, ou sur les flèches vertes pour les cartes adjacentes.


METAR-TAF: